Time;durP1;ratioP1;P1;durP2;ratioP2;P2;SDS_P1;SDS_P2;PMS_P1;PMS_P2;Temp;Humidity;BMP_temperature;BMP_pressure;BME280_temperature;BME280_humidity;BME280_pressure;Samples;Min_cycle;Max_cycle;Signal;HPM_P1;HPM_P2
2021/12/23 00:00:42;;;;;;;;;19.00;19.00;13.60;99.90;;;;;;5028237;28;11604;-53
2021/12/23 00:03:13;;;;;;;;;13.75;13.75;13.60;99.90;;;;;;5049259;28;11496;-53
2021/12/23 00:05:44;;;;;;;;;17.50;17.50;13.60;99.90;;;;;;5046333;28;11623;-52
2021/12/23 00:08:15;;;;;;;;;15.50;14.75;13.70;99.90;;;;;;5053294;28;11579;-52
2021/12/23 00:10:45;;;;;;;;;21.75;21.75;13.70;99.90;;;;;;5048253;28;11439;-51
2021/12/23 00:13:17;;;;;;;;;20.00;18.00;13.60;99.90;;;;;;5056086;28;11470;-51
2021/12/23 00:24:16;;;;;;;;;14.00;14.00;13.60;99.90;;;;;;5008190;28;11586;-50
2021/12/23 00:26:47;;;;;;;;;15.50;15.50;13.60;99.90;;;;;;5027825;28;11449;-53
2021/12/23 00:29:19;;;;;;;;;14.25;14.25;13.50;99.90;;;;;;5031676;28;11473;-52
2021/12/23 00:31:49;;;;;;;;;12.75;12.75;13.60;99.90;;;;;;5026963;28;11538;-51
2021/12/23 00:34:20;;;;;;;;;15.50;15.50;13.50;99.90;;;;;;5029020;28;11487;-52
2021/12/23 00:36:54;;;;;;;;;12.00;12.00;13.50;99.90;;;;;;5029159;28;12263;-53
2021/12/23 00:39:26;;;;;;;;;13.50;13.50;13.50;99.90;;;;;;5031119;28;11467;-52
2021/12/23 00:42:06;;;;;;;;;15.00;15.00;13.50;99.90;;;;;;5031202;28;11432;-51
2021/12/23 00:44:45;;;;;;;;;12.50;12.50;13.50;99.90;;;;;;5033880;28;12408;-51
2021/12/23 00:47:15;;;;;;;;;15.75;15.50;13.50;99.90;;;;;;5031103;28;11454;-51
2021/12/23 00:49:45;;;;;;;;;13.75;13.75;13.50;99.90;;;;;;5028567;28;11432;-52
2021/12/23 00:52:26;;;;;;;;;13.25;13.25;13.50;99.90;;;;;;5031322;28;11497;-53
2021/12/23 00:55:01;;;;;;;;;13.75;13.75;13.50;99.90;;;;;;5032700;28;12207;-54
2021/12/23 00:57:37;;;;;;;;;15.25;14.75;13.50;99.90;;;;;;5033080;28;12621;-52
2021/12/23 01:00:20;;;;;;;;;12.75;12.75;13.50;99.90;;;;;;5030759;28;11492;-53
2021/12/23 01:02:50;;;;;;;;;10.75;9.75;13.50;99.90;;;;;;5029078;28;11568;-54
2021/12/23 01:05:22;;;;;;;;;13.00;13.00;13.50;99.90;;;;;;5023402;28;11511;-52
2021/12/23 01:07:54;;;;;;;;;14.50;14.50;13.50;99.90;;;;;;5031852;28;11427;-53
2021/12/23 01:10:27;;;;;;;;;16.50;15.75;13.50;99.90;;;;;;5027733;28;11500;-53
2021/12/23 01:13:02;;;;;;;;;16.75;16.75;13.50;99.90;;;;;;5028966;28;11548;-51
2021/12/23 01:18:19;;;;;;;;;15.75;15.75;13.50;99.90;;;;;;5033280;28;11517;-53
2021/12/23 01:21:02;;;;;;;;;16.75;16.75;13.50;99.90;;;;;;5027291;28;11485;-52
2021/12/23 01:23:38;;;;;;;;;18.75;18.25;13.50;99.90;;;;;;5049494;28;11614;-50
2021/12/23 01:26:17;;;;;;;;;13.50;13.50;13.50;99.90;;;;;;5051762;28;11464;-50
2021/12/23 01:28:58;;;;;;;;;15.00;15.00;13.50;99.90;;;;;;5049897;28;11503;-53
2021/12/23 01:31:31;;;;;;;;;16.25;16.25;13.50;99.90;;;;;;5051343;28;11491;-53
2021/12/23 01:34:06;;;;;;;;;16.25;14.00;13.50;99.90;;;;;;5045997;28;12436;-51
2021/12/23 01:36:37;;;;;;;;;29.00;26.75;13.40;99.90;;;;;;5051046;28;11520;-52
2021/12/23 01:39:08;;;;;;;;;27.25;26.00;13.40;99.90;;;;;;5046976;28;11648;-52
2021/12/23 01:41:39;;;;;;;;;20.00;20.00;13.40;99.90;;;;;;5034557;28;11502;-52
2021/12/23 01:44:09;;;;;;;;;19.25;17.00;13.40;99.90;;;;;;5046129;28;11612;-51
2021/12/23 01:46:40;;;;;;;;;19.25;19.25;13.40;99.90;;;;;;5051436;28;11493;-51
2021/12/23 01:49:13;;;;;;;;;16.75;16.75;13.40;99.90;;;;;;5051415;28;11444;-52
2021/12/23 01:51:48;;;;;;;;;15.00;15.00;13.40;99.90;;;;;;5051677;28;12941;-52
2021/12/23 01:54:18;;;;;;;;;15.50;14.50;13.40;99.90;;;;;;5047708;28;12255;-52
2021/12/23 01:56:50;;;;;;;;;14.25;14.25;13.40;99.90;;;;;;5052030;28;12228;-53
2021/12/23 01:59:21;;;;;;;;;17.75;17.75;13.40;99.90;;;;;;5047498;28;11479;-54
2021/12/23 02:01:51;;;;;;;;;17.75;17.75;13.40;99.90;;;;;;5051919;28;11573;-54
2021/12/23 02:04:23;;;;;;;;;18.75;18.75;13.40;99.90;;;;;;5048073;28;11477;-50
2021/12/23 02:06:54;;;;;;;;;18.50;18.50;13.40;99.90;;;;;;5044437;28;11514;-53
2021/12/23 02:09:24;;;;;;;;;15.00;15.00;13.40;99.90;;;;;;5049371;28;11472;-53
2021/12/23 02:11:55;;;;;;;;;18.00;17.75;13.30;99.90;;;;;;5044613;28;11442;-51
2021/12/23 02:14:27;;;;;;;;;16.25;16.25;13.30;99.90;;;;;;5050508;28;11627;-54
2021/12/23 02:16:58;;;;;;;;;18.25;18.25;13.30;99.90;;;;;;5048979;28;11428;-53
2021/12/23 02:19:31;;;;;;;;;15.75;15.75;13.30;99.90;;;;;;5053050;28;11527;-52
2021/12/23 02:22:03;;;;;;;;;14.75;14.75;13.30;99.90;;;;;;5046036;28;12201;-51
2021/12/23 02:24:34;;;;;;;;;15.25;15.25;13.30;99.90;;;;;;5040783;28;11557;-54
2021/12/23 02:27:06;;;;;;;;;16.50;16.50;13.30;99.90;;;;;;5045029;28;11496;-53
2021/12/23 02:29:37;;;;;;;;;14.00;14.00;13.30;99.90;;;;;;5054330;28;11461;-52
2021/12/23 02:32:07;;;;;;;;;14.00;12.50;13.30;99.90;;;;;;5042570;28;13545;-52
2021/12/23 02:34:37;;;;;;;;;12.50;12.50;13.20;99.90;;;;;;5050742;28;11471;-52
2021/12/23 02:37:11;;;;;;;;;14.25;14.25;13.30;99.90;;;;;;5045088;28;11448;-53
2021/12/23 02:39:43;;;;;;;;;14.00;14.00;13.30;99.90;;;;;;5051082;28;11401;-52
2021/12/23 02:42:14;;;;;;;;;12.25;12.25;13.30;99.90;;;;;;5045841;28;11469;-52
2021/12/23 02:44:45;;;;;;;;;14.50;14.50;13.30;99.90;;;;;;5033669;28;11456;-53
2021/12/23 02:47:18;;;;;;;;;12.75;12.75;13.30;99.90;;;;;;5049734;28;11608;-49
2021/12/23 02:49:49;;;;;;;;;15.50;14.00;13.30;99.90;;;;;;5047465;28;12271;-51
2021/12/23 02:52:20;;;;;;;;;16.50;16.50;13.20;99.90;;;;;;5048990;28;12546;-50
2021/12/23 02:54:58;;;;;;;;;17.00;16.50;13.30;99.90;;;;;;5046327;28;11487;-53
2021/12/23 02:57:34;;;;;;;;;12.50;12.50;13.20;99.90;;;;;;5048704;28;11527;-49
2021/12/23 03:00:10;;;;;;;;;13.00;13.00;13.30;99.90;;;;;;5035380;28;11499;-52
2021/12/23 03:02:42;;;;;;;;;15.75;15.75;13.30;99.90;;;;;;5034401;28;11452;-52
2021/12/23 03:05:13;;;;;;;;;13.75;13.75;13.20;99.90;;;;;;5044579;28;11463;-53
2021/12/23 03:07:47;;;;;;;;;12.75;11.25;13.20;99.90;;;;;;5047871;28;11447;-53
2021/12/23 03:10:21;;;;;;;;;16.75;16.75;13.20;99.90;;;;;;5045750;28;12245;-51
2021/12/23 03:12:52;;;;;;;;;13.25;13.25;13.20;99.90;;;;;;5054261;28;11438;-51
2021/12/23 03:15:23;;;;;;;;;16.50;16.50;13.20;99.90;;;;;;5053223;28;11687;-52
2021/12/23 03:17:53;;;;;;;;;14.00;14.00;13.20;99.90;;;;;;5050930;28;11543;-53
2021/12/23 03:20:24;;;;;;;;;14.00;14.00;13.30;99.90;;;;;;5025723;28;11622;-54
2021/12/23 03:22:56;;;;;;;;;13.00;13.00;13.20;99.90;;;;;;5032786;28;11593;-52
2021/12/23 03:25:26;;;;;;;;;16.75;16.75;13.20;99.90;;;;;;5028042;28;11571;-52
2021/12/23 03:27:58;;;;;;;;;16.75;16.00;13.30;99.90;;;;;;5036760;28;11414;-53
2021/12/23 03:30:30;;;;;;;;;18.25;18.25;13.20;99.90;;;;;;5047782;28;11549;-51
2021/12/23 03:33:01;;;;;;;;;16.25;16.25;13.20;99.90;;;;;;5052355;28;11511;-54
2021/12/23 03:35:34;;;;;;;;;17.75;17.75;13.30;99.90;;;;;;5034551;28;11505;-52
2021/12/23 03:38:08;;;;;;;;;18.00;18.00;13.20;99.90;;;;;;5049903;28;11532;-53
2021/12/23 03:40:45;;;;;;;;;14.75;14.75;13.20;99.90;;;;;;5048735;28;11521;-52
2021/12/23 03:43:16;;;;;;;;;16.25;16.25;13.20;99.90;;;;;;5055192;28;12146;-50
2021/12/23 03:45:49;;;;;;;;;17.50;17.50;13.20;99.90;;;;;;5052393;28;11471;-51
2021/12/23 03:48:20;;;;;;;;;14.75;14.75;13.20;99.90;;;;;;5055875;28;11528;-53
2021/12/23 03:50:54;;;;;;;;;18.75;18.75;13.30;99.90;;;;;;5054256;28;11416;-53
2021/12/23 03:53:26;;;;;;;;;17.75;17.75;13.20;99.90;;;;;;5035968;28;11457;-53
2021/12/23 03:55:57;;;;;;;;;17.75;17.75;13.20;99.90;;;;;;5050533;28;11481;-53
2021/12/23 03:58:27;;;;;;;;;13.75;13.75;13.30;99.90;;;;;;5054326;28;11459;-52
2021/12/23 04:00:59;;;;;;;;;12.50;12.50;13.30;99.90;;;;;;5057401;28;11458;-50
2021/12/23 04:03:30;;;;;;;;;17.50;15.00;13.20;99.90;;;;;;5041039;28;11458;-52
2021/12/23 04:06:04;;;;;;;;;14.25;14.25;13.20;99.90;;;;;;5053316;28;11672;-53
2021/12/23 04:08:35;;;;;;;;;20.50;19.25;13.20;99.90;;;;;;5052822;28;11455;-56
2021/12/23 04:11:08;;;;;;;;;10.50;9.75;13.20;99.90;;;;;;5053184;28;11493;-53
2021/12/23 04:13:38;;;;;;;;;22.00;22.00;13.20;99.90;;;;;;5053609;28;11590;-53
2021/12/23 04:16:15;;;;;;;;;17.25;16.50;13.20;99.90;;;;;;5050670;28;11512;-51
2021/12/23 04:18:46;;;;;;;;;15.75;15.75;13.20;99.90;;;;;;5044789;28;12299;-51
2021/12/23 04:21:17;;;;;;;;;19.00;16.50;13.20;99.90;;;;;;5051549;28;12239;-50
2021/12/23 04:23:48;;;;;;;;;16.75;16.75;13.20;99.90;;;;;;5049271;28;11679;-53
2021/12/23 04:26:20;;;;;;;;;18.25;18.25;13.20;99.90;;;;;;5055085;28;11544;-53
2021/12/23 04:28:51;;;;;;;;;17.00;17.00;13.20;99.90;;;;;;5034064;28;11511;-52
2021/12/23 04:31:24;;;;;;;;;18.25;18.25;13.20;99.90;;;;;;5052825;28;11573;-52
2021/12/23 04:33:56;;;;;;;;;18.25;18.25;13.20;99.90;;;;;;5048229;28;11500;-52
2021/12/23 04:36:29;;;;;;;;;12.75;12.75;13.20;99.90;;;;;;5051231;28;11505;-52
2021/12/23 04:39:01;;;;;;;;;20.25;20.25;13.20;99.90;;;;;;5032951;28;11455;-51
2021/12/23 04:41:32;;;;;;;;;29.25;27.00;13.20;99.90;;;;;;5051291;28;11629;-52
2021/12/23 04:44:03;;;;;;;;;28.25;28.25;13.20;99.90;;;;;;5046477;28;11501;-51
2021/12/23 04:46:35;;;;;;;;;22.00;22.00;13.10;99.90;;;;;;5055973;28;11484;-53
2021/12/23 04:49:07;;;;;;;;;23.50;23.50;13.20;99.90;;;;;;5051507;28;11519;-53
2021/12/23 04:51:43;;;;;;;;;26.00;26.00;13.10;99.90;;;;;;5051338;28;11689;-51
2021/12/23 04:54:13;;;;;;;;;23.25;23.25;13.10;99.90;;;;;;5049900;28;11527;-51
2021/12/23 04:56:45;;;;;;;;;28.50;28.50;13.10;99.90;;;;;;5056008;28;11607;-53
2021/12/23 04:59:17;;;;;;;;;31.50;30.75;13.10;99.90;;;;;;5054833;28;11503;-50
2021/12/23 05:01:49;;;;;;;;;24.50;22.00;13.10;99.90;;;;;;5054439;28;11497;-51
2021/12/23 05:04:24;;;;;;;;;24.00;24.00;13.10;99.90;;;;;;5054130;28;11612;-53
2021/12/23 05:06:55;;;;;;;;;23.50;23.50;13.10;99.90;;;;;;5046440;28;11557;-52
2021/12/23 05:09:26;;;;;;;;;24.75;23.75;13.10;99.90;;;;;;5053446;28;11477;-53
2021/12/23 05:11:58;;;;;;;;;21.50;21.00;13.10;99.90;;;;;;5021637;28;11474;-53
2021/12/23 05:14:29;;;;;;;;;21.75;21.75;13.10;99.90;;;;;;5051954;28;11445;-53
2021/12/23 05:17:00;;;;;;;;;25.50;24.00;13.10;99.90;;;;;;5048930;28;11474;-51
2021/12/23 05:19:30;;;;;;;;;23.75;23.75;13.10;99.90;;;;;;5038722;28;12220;-56
2021/12/23 05:22:01;;;;;;;;;19.50;19.50;13.10;99.90;;;;;;5031152;28;11477;-50
2021/12/23 05:24:32;;;;;;;;;22.00;22.00;13.10;99.90;;;;;;5052070;28;11514;-52
2021/12/23 05:27:02;;;;;;;;;21.25;21.25;13.10;99.90;;;;;;5015736;28;11584;-52
2021/12/23 05:29:34;;;;;;;;;19.25;19.25;13.10;99.90;;;;;;5049999;28;11575;-52
2021/12/23 05:32:06;;;;;;;;;24.00;24.00;13.10;99.90;;;;;;5046914;28;11504;-52
2021/12/23 05:34:37;;;;;;;;;27.00;24.50;13.10;99.90;;;;;;5042971;28;11543;-51
2021/12/23 05:37:07;;;;;;;;;20.75;20.25;13.20;99.90;;;;;;5039214;28;11687;-52
2021/12/23 05:39:38;;;;;;;;;20.00;20.00;13.10;99.90;;;;;;5048261;28;11466;-53
2021/12/23 05:42:16;;;;;;;;;23.00;23.00;13.10;99.90;;;;;;5046140;28;11594;-53
2021/12/23 05:44:46;;;;;;;;;16.75;16.75;13.20;99.90;;;;;;5047050;28;11498;-56
2021/12/23 05:47:21;;;;;;;;;20.75;19.25;13.10;99.90;;;;;;5054694;28;11442;-55
2021/12/23 05:49:52;;;;;;;;;20.75;20.75;13.10;99.90;;;;;;5036175;28;11500;-49
2021/12/23 05:52:27;;;;;;;;;20.50;20.50;13.10;99.90;;;;;;5042581;28;11561;-57
2021/12/23 05:55:02;;;;;;;;;17.00;17.00;13.20;99.90;;;;;;5035403;28;12285;-56
2021/12/23 05:57:32;;;;;;;;;17.00;17.00;13.30;99.90;;;;;;5023894;28;11595;-52
2021/12/23 06:00:13;;;;;;;;;9.50;9.50;13.40;99.90;;;;;;5053135;28;11492;-53
2021/12/23 06:02:44;;;;;;;;;16.75;16.75;13.50;99.90;;;;;;5051793;28;11450;-57
2021/12/23 06:05:16;;;;;;;;;20.50;20.50;13.50;99.90;;;;;;5046403;28;11568;-53
2021/12/23 06:07:48;;;;;;;;;18.25;18.25;13.50;99.90;;;;;;5032840;28;11446;-55
2021/12/23 06:10:20;;;;;;;;;16.25;16.25;13.50;99.90;;;;;;5052114;28;11475;-55
2021/12/23 06:12:51;;;;;;;;;17.50;17.50;13.60;99.90;;;;;;5052323;28;11504;-54
2021/12/23 06:15:22;;;;;;;;;17.00;17.00;13.50;99.90;;;;;;5051148;28;11493;-53
2021/12/23 06:17:52;;;;;;;;;18.75;17.00;13.50;99.90;;;;;;5044345;28;11514;-53
2021/12/23 06:20:24;;;;;;;;;13.00;13.00;13.50;99.90;;;;;;5048541;28;11471;-53
2021/12/23 06:22:55;;;;;;;;;8.50;8.50;13.50;99.90;;;;;;5052220;28;11479;-53
2021/12/23 06:25:25;;;;;;;;;6.00;6.00;13.50;99.90;;;;;;5039103;28;11461;-54
2021/12/23 06:27:56;;;;;;;;;7.25;7.25;13.50;99.90;;;;;;5038105;28;11389;-52
2021/12/23 06:30:29;;;;;;;;;5.75;5.75;13.50;99.90;;;;;;5035743;28;12161;-53
2021/12/23 06:33:00;;;;;;;;;5.25;5.25;13.60;99.90;;;;;;5050825;28;11396;-53
2021/12/23 06:35:32;;;;;;;;;4.00;4.00;13.60;99.90;;;;;;5050791;28;11177;-53
2021/12/23 06:38:06;;;;;;;;;1.25;1.25;13.60;99.90;;;;;;5053001;28;11250;-54
2021/12/23 06:40:38;;;;;;;;;1.00;1.00;13.60;99.90;;;;;;5051863;28;11055;-53
2021/12/23 06:43:10;;;;;;;;;1.25;1.25;13.60;99.90;;;;;;5038862;28;10991;-55
2021/12/23 06:45:42;;;;;;;;;1.75;1.75;13.60;99.90;;;;;;5042535;28;11166;-56
2021/12/23 06:48:12;;;;;;;;;4.00;4.00;13.60;99.90;;;;;;5051984;28;11189;-53
2021/12/23 06:50:45;;;;;;;;;2.00;2.00;13.60;99.90;;;;;;5031242;28;11437;-59
2021/12/23 06:53:16;;;;;;;;;1.50;1.50;13.60;99.90;;;;;;5051716;28;11071;-56
2021/12/23 06:55:46;;;;;;;;;2.00;2.00;13.60;99.90;;;;;;5050873;28;11068;-53
2021/12/23 06:58:19;;;;;;;;;2.00;2.00;13.70;99.90;;;;;;5052097;28;10894;-55
2021/12/23 07:00:52;;;;;;;;;2.50;2.50;13.70;99.90;;;;;;5050303;28;10996;-56
2021/12/23 07:03:33;;;;;;;;;2.00;2.00;13.70;99.90;;;;;;5040235;28;11135;-57
2021/12/23 07:06:08;;;;;;;;;1.75;1.75;13.70;99.90;;;;;;5046365;28;11030;-56
2021/12/23 07:08:44;;;;;;;;;1.00;1.00;13.70;99.90;;;;;;5050293;28;13431;-51
2021/12/23 07:11:15;;;;;;;;;0.00;0.00;13.70;99.90;;;;;;5045137;28;10863;-54
2021/12/23 07:13:46;;;;;;;;;0.00;0.00;13.70;99.90;;;;;;5051267;28;10806;-55
2021/12/23 07:16:18;;;;;;;;;0.00;0.00;13.70;99.90;;;;;;5040305;28;11018;-55
2021/12/23 07:18:48;;;;;;;;;0.00;0.00;13.80;99.90;;;;;;5051213;28;11844;-53
2021/12/23 07:21:19;;;;;;;;;0.00;0.00;13.80;99.90;;;;;;5049277;28;10865;-52
2021/12/23 07:23:51;;;;;;;;;0.00;0.00;13.80;99.90;;;;;;5049045;28;10972;-53
2021/12/23 07:26:24;;;;;;;;;0.00;0.00;13.80;99.90;;;;;;5051576;28;10874;-54
2021/12/23 07:28:55;;;;;;;;;0.00;0.00;13.80;99.90;;;;;;5033555;28;10625;-56
2021/12/23 07:31:25;;;;;;;;;0.00;0.00;13.80;99.90;;;;;;5044006;28;10853;-53
2021/12/23 07:33:58;;;;;;;;;0.00;0.00;13.90;99.90;;;;;;5047072;28;10983;-53
2021/12/23 07:36:30;;;;;;;;;0.00;0.00;13.90;99.90;;;;;;5016724;28;10817;-55
2021/12/23 07:39:01;;;;;;;;;0.00;0.00;13.90;99.90;;;;;;5044524;28;10926;-52
2021/12/23 07:41:52;;;;;;;;;0.00;0.00;13.90;99.90;;;;;;5046449;28;10817;-59
2021/12/23 07:44:36;;;;;;;;;1.25;1.25;13.90;99.90;;;;;;5043059;28;10793;-58
2021/12/23 07:47:07;;;;;;;;;6.25;6.25;14.00;99.90;;;;;;5040485;28;11870;-55
2021/12/23 07:49:38;;;;;;;;;4.75;4.75;14.00;99.90;;;;;;5025569;28;11395;-51
2021/12/23 07:52:15;;;;;;;;;1.25;1.25;14.00;99.90;;;;;;5047700;28;11185;-56
2021/12/23 07:54:46;;;;;;;;;0.00;0.00;14.00;99.90;;;;;;5043395;28;11104;-53
2021/12/23 07:57:16;;;;;;;;;0.00;0.00;14.00;99.90;;;;;;5046988;28;11094;-55
2021/12/23 07:59:47;;;;;;;;;0.00;0.00;14.00;99.90;;;;;;5051112;28;10583;-55
2021/12/23 08:02:18;;;;;;;;;0.00;0.00;14.10;99.90;;;;;;5040385;28;10646;-54
2021/12/23 08:04:49;;;;;;;;;0.00;0.00;14.10;99.90;;;;;;5048408;28;11017;-53
2021/12/23 08:07:21;;;;;;;;;0.00;0.00;14.10;99.90;;;;;;5044295;28;11362;-54
2021/12/23 08:09:51;;;;;;;;;0.00;0.00;14.10;99.90;;;;;;5045611;28;10927;-53
2021/12/23 08:12:23;;;;;;;;;0.00;0.00;14.10;99.90;;;;;;5050038;28;11302;-53
2021/12/23 08:14:54;;;;;;;;;0.00;0.00;14.20;99.90;;;;;;5044738;28;10751;-53
2021/12/23 08:17:35;;;;;;;;;0.00;0.00;14.20;99.90;;;;;;5032875;28;10780;-52
2021/12/23 08:20:15;;;;;;;;;0.00;0.00;14.20;99.90;;;;;;5047116;28;10983;-55
2021/12/23 08:22:47;;;;;;;;;0.00;0.00;14.20;99.90;;;;;;5049096;28;10745;-53
2021/12/23 08:25:18;;;;;;;;;0.00;0.00;14.20;99.90;;;;;;5032880;28;10926;-52
2021/12/23 08:27:53;;;;;;;;;0.00;0.00;14.20;99.90;;;;;;5046625;28;10752;-53
2021/12/23 08:30:25;;;;;;;;;0.00;0.00;14.30;99.90;;;;;;5044066;28;11465;-54
2021/12/23 08:32:56;;;;;;;;;0.00;0.00;14.30;99.90;;;;;;5057665;28;10670;-52
2021/12/23 08:35:32;;;;;;;;;0.00;0.00;14.30;99.90;;;;;;5031766;28;10655;-54
2021/12/23 08:38:03;;;;;;;;;0.00;0.00;14.30;99.90;;;;;;5038201;28;10622;-54
2021/12/23 08:40:35;;;;;;;;;0.00;0.00;14.30;99.90;;;;;;5048586;28;10600;-55
2021/12/23 08:43:05;;;;;;;;;0.00;0.00;14.40;99.90;;;;;;5051315;28;10413;-53
2021/12/23 08:45:36;;;;;;;;;0.00;0.00;14.40;99.90;;;;;;5055232;28;10439;-53
2021/12/23 08:48:07;;;;;;;;;0.00;0.00;14.40;99.90;;;;;;5054881;28;10495;-53
2021/12/23 08:50:37;;;;;;;;;0.00;0.00;14.40;99.90;;;;;;5053358;28;10652;-54
2021/12/23 08:53:08;;;;;;;;;0.00;0.00;14.40;99.90;;;;;;5043248;28;11330;-54
2021/12/23 08:55:43;;;;;;;;;0.00;0.00;14.40;99.90;;;;;;5053863;28;10737;-54
2021/12/23 08:58:14;;;;;;;;;0.00;0.00;14.40;99.90;;;;;;5048683;28;10684;-53
2021/12/23 09:00:44;;;;;;;;;0.00;0.00;14.50;99.90;;;;;;5053307;28;10316;-52
2021/12/23 09:03:15;;;;;;;;;0.00;0.00;14.50;99.90;;;;;;5049512;28;10415;-54
2021/12/23 09:05:48;;;;;;;;;0.00;0.00;14.40;99.90;;;;;;5044873;28;10452;-54
2021/12/23 09:08:19;;;;;;;;;0.00;0.00;14.50;99.90;;;;;;5048035;28;10511;-52
2021/12/23 09:10:50;;;;;;;;;0.00;0.00;14.50;99.90;;;;;;5052124;28;11532;-54
2021/12/23 09:13:21;;;;;;;;;0.00;0.00;14.50;99.90;;;;;;5050738;28;10416;-54
2021/12/23 09:15:51;;;;;;;;;0.00;0.00;14.50;99.90;;;;;;5056597;28;10450;-55
2021/12/23 09:18:23;;;;;;;;;0.00;0.00;14.50;99.90;;;;;;5044127;28;10443;-52
2021/12/23 09:20:56;;;;;;;;;0.00;0.00;14.50;99.90;;;;;;5053071;28;10623;-54
2021/12/23 09:23:31;;;;;;;;;0.00;0.00;14.50;99.90;;;;;;5049397;28;10642;-53
2021/12/23 09:26:08;;;;;;;;;0.00;0.00;14.50;99.90;;;;;;5053346;28;10382;-53
2021/12/23 09:29:07;;;;;;;;;0.00;0.00;14.50;99.90;;;;;;5049020;28;10571;-54
2021/12/23 09:34:29;;;;;;;;;0.00;0.00;14.60;99.90;;;;;;5052935;28;10425;-54
2021/12/23 09:36:59;;;;;;;;;0.00;0.00;14.60;99.90;;;;;;5047050;28;10621;-53
2021/12/23 09:39:29;;;;;;;;;0.00;0.00;14.60;99.90;;;;;;5052785;28;11202;-54
2021/12/23 09:42:02;;;;;;;;;0.00;0.00;14.60;99.90;;;;;;5048688;28;10865;-52
2021/12/23 09:44:33;;;;;;;;;0.00;0.00;14.60;99.90;;;;;;5049280;28;10319;-51
2021/12/23 09:47:06;;;;;;;;;0.00;0.00;14.60;99.90;;;;;;5051162;28;10573;-53
2021/12/23 09:49:37;;;;;;;;;0.00;0.00;14.60;99.90;;;;;;5054163;28;10464;-53
2021/12/23 09:52:09;;;;;;;;;0.00;0.00;14.60;99.90;;;;;;5052562;28;10604;-53
2021/12/23 09:54:44;;;;;;;;;0.00;0.00;14.60;99.90;;;;;;5044919;28;10612;-50
2021/12/23 09:57:15;;;;;;;;;0.00;0.00;14.70;99.90;;;;;;5051014;28;10678;-54
2021/12/23 09:59:46;;;;;;;;;0.00;0.00;14.70;99.90;;;;;;5047673;28;10524;-53
2021/12/23 10:02:16;;;;;;;;;0.00;0.00;14.70;99.90;;;;;;5036879;28;10600;-52
2021/12/23 10:04:50;;;;;;;;;0.00;0.00;14.70;99.90;;;;;;5051382;28;11187;-51
2021/12/23 10:07:19;;;;;;;;;0.00;0.00;14.70;99.90;;;;;;5049265;28;10376;-54
2021/12/23 10:13:10;;;;;;;;;0.00;0.00;14.70;99.90;;;;;;5050064;28;11929;-52
2021/12/23 10:29:04;;;;;;;;;0.00;0.00;14.70;99.90;;;;;;5042631;28;10499;-54
2021/12/23 10:30:49;;;;;;;;;0.00;0.00;14.70;99.90;;;;;;5043563;28;10449;-53
2021/12/23 10:33:44;;;;;;;;;0.00;0.00;14.80;99.90;;;;;;5050981;28;10724;-52
2021/12/23 10:38:52;;;;;;;;;1.00;0.00;14.80;99.90;;;;;;5047942;28;10679;-55
2021/12/23 10:41:28;;;;;;;;;0.00;0.00;14.80;99.90;;;;;;5050897;28;10413;-55
2021/12/23 10:44:01;;;;;;;;;0.00;0.00;14.80;99.90;;;;;;5053352;28;11223;-53
2021/12/23 10:46:38;;;;;;;;;0.00;0.00;14.80;99.90;;;;;;5050860;28;10507;-54
2021/12/23 10:49:43;;;;;;;;;0.00;0.00;14.80;99.90;;;;;;5046207;28;10365;-54
2021/12/23 10:52:19;;;;;;;;;0.00;0.00;14.80;99.90;;;;;;5050347;28;10415;-54
2021/12/23 11:00:31;;;;;;;;;0.00;0.00;14.80;99.90;;;;;;5028289;28;10562;-54
2021/12/23 11:03:11;;;;;;;;;0.00;0.00;14.80;99.90;;;;;;5045168;28;10575;-54
2021/12/23 11:05:57;;;;;;;;;0.00;0.00;14.80;99.90;;;;;;5044394;28;10605;-53
2021/12/23 11:08:42;;;;;;;;;0.00;0.00;14.80;99.90;;;;;;5044508;28;11513;-54
2021/12/23 11:11:36;;;;;;;;;0.00;0.00;14.80;99.90;;;;;;5051323;28;10355;-54
2021/12/23 11:27:29;;;;;;;;;0.00;0.00;14.80;99.90;;;;;;4995173;28;10444;-53
2021/12/23 11:37:10;;;;;;;;;0.00;0.00;14.80;99.90;;;;;;5045579;28;10447;-49
2021/12/23 11:40:51;;;;;;;;;0.00;0.00;14.80;99.90;;;;;;5051526;28;10620;-52
2021/12/23 11:43:27;;;;;;;;;0.75;0.00;14.80;99.90;;;;;;5036274;28;10634;-53
2021/12/23 11:45:45;;;;;;;;;0.75;0.00;14.80;99.90;;;;;;5033759;28;10558;-53
2021/12/23 11:48:16;;;;;;;;;0.00;0.00;14.80;99.90;;;;;;5047362;28;10623;-54
2021/12/23 11:51:07;;;;;;;;;0.00;0.00;14.80;99.90;;;;;;5048962;28;10477;-55
2021/12/23 11:53:39;;;;;;;;;0.00;0.00;14.80;99.90;;;;;;5033209;28;10569;-55
2021/12/23 11:56:14;;;;;;;;;0.00;0.00;14.80;99.90;;;;;;5044416;28;12379;-54
2021/12/23 11:58:47;;;;;;;;;0.00;0.00;14.80;99.90;;;;;;5049876;28;10557;-55
2021/12/23 12:01:28;;;;;;;;;0.00;0.00;14.80;99.90;;;;;;5031897;28;10128;-52
2021/12/23 12:04:04;;;;;;;;;0.00;0.00;14.80;99.90;;;;;;5049463;28;10626;-54
2021/12/23 12:06:39;;;;;;;;;0.00;0.00;14.80;99.90;;;;;;5048744;28;10673;-55
2021/12/23 12:09:22;;;;;;;;;0.00;0.00;14.80;99.90;;;;;;5056427;28;10480;-54
2021/12/23 12:12:11;;;;;;;;;0.00;0.00;14.80;99.90;;;;;;5046161;28;10564;-51
2021/12/23 12:14:47;;;;;;;;;0.00;0.00;14.80;99.90;;;;;;5034055;28;11125;-54
2021/12/23 12:17:33;;;;;;;;;0.00;0.00;14.80;99.90;;;;;;5051831;28;10434;-52
2021/12/23 12:20:14;;;;;;;;;0.00;0.00;14.80;99.90;;;;;;5025380;28;10517;-53
2021/12/23 12:23:04;;;;;;;;;0.00;0.00;14.80;99.90;;;;;;5048795;28;10393;-53
2021/12/23 12:25:48;;;;;;;;;0.00;0.00;14.80;99.90;;;;;;5025402;28;10501;-52
2021/12/23 12:28:45;;;;;;;;;0.00;0.00;14.80;99.90;;;;;;5050739;28;10586;-54
2021/12/23 12:31:21;;;;;;;;;0.00;0.00;14.80;99.90;;;;;;5048753;28;10617;-53
2021/12/23 12:34:11;;;;;;;;;0.00;0.00;14.80;99.90;;;;;;5048293;28;10513;-53
2021/12/23 12:36:49;;;;;;;;;0.00;0.00;14.80;99.90;;;;;;5050481;28;10504;-53
2021/12/23 12:39:39;;;;;;;;;0.00;0.00;14.80;99.90;;;;;;5054704;28;10364;-54
2021/12/23 12:42:36;;;;;;;;;0.00;0.00;14.80;99.90;;;;;;5047886;28;11193;-54
2021/12/23 12:45:15;;;;;;;;;0.00;0.00;14.80;99.90;;;;;;5055519;28;10510;-55
2021/12/23 12:47:56;;;;;;;;;0.00;0.00;14.80;99.90;;;;;;5050967;28;10476;-53
2021/12/23 12:50:29;;;;;;;;;0.00;0.00;14.80;99.90;;;;;;5054674;28;10347;-54
2021/12/23 12:53:11;;;;;;;;;0.00;0.00;14.80;99.90;;;;;;5044573;28;11117;-55
2021/12/23 12:55:44;;;;;;;;;0.00;0.00;14.80;99.90;;;;;;5053120;28;11200;-55
2021/12/23 12:58:15;;;;;;;;;0.00;0.00;14.80;99.90;;;;;;5047162;28;11278;-54
2021/12/23 13:00:52;;;;;;;;;0.00;0.00;14.80;99.90;;;;;;5051376;28;10257;-53
2021/12/23 13:03:25;;;;;;;;;0.00;0.00;14.80;99.90;;;;;;5046869;28;10221;-53
2021/12/23 13:05:57;;;;;;;;;0.00;0.00;14.80;99.90;;;;;;5056177;28;10854;-51
2021/12/23 13:08:48;;;;;;;;;0.00;0.00;14.80;99.90;;;;;;5024353;28;10673;-53
2021/12/23 13:11:50;;;;;;;;;0.00;0.00;14.80;99.90;;;;;;5047480;28;10510;-54
2021/12/23 13:15:16;;;;;;;;;0.00;0.00;14.80;99.90;;;;;;5041691;28;10334;-54
2021/12/23 13:18:21;;;;;;;;;0.00;0.00;14.80;99.90;;;;;;5037399;28;10414;-54
2021/12/23 13:20:55;;;;;;;;;0.00;0.00;14.80;99.90;;;;;;5035708;28;10423;-54
2021/12/23 13:23:37;;;;;;;;;0.00;0.00;14.80;99.90;;;;;;5030375;28;11476;-53
2021/12/23 13:26:13;;;;;;;;;0.00;0.00;14.80;99.90;;;;;;5053771;28;10570;-54
2021/12/23 13:28:58;;;;;;;;;0.00;0.00;14.80;99.90;;;;;;5033341;28;10422;-53
2021/12/23 13:31:31;;;;;;;;;0.00;0.00;14.80;99.90;;;;;;5054054;28;10301;-54
2021/12/23 13:34:12;;;;;;;;;1.00;0.00;14.80;99.90;;;;;;5054195;28;10416;-54
2021/12/23 13:36:47;;;;;;;;;0.00;0.00;14.80;99.90;;;;;;5052980;28;11122;-58
2021/12/23 13:39:26;;;;;;;;;0.00;0.00;14.80;99.90;;;;;;5055079;28;10350;-53
2021/12/23 13:42:01;;;;;;;;;0.00;0.00;14.80;99.90;;;;;;5047575;28;10434;-50
2021/12/23 13:44:48;;;;;;;;;0.00;0.00;14.80;99.90;;;;;;5050374;28;10471;-54
2021/12/23 13:47:22;;;;;;;;;0.00;0.00;14.80;99.90;;;;;;5030735;28;10223;-53
2021/12/23 13:49:58;;;;;;;;;0.00;0.00;14.80;99.90;;;;;;5050228;28;10547;-52
2021/12/23 13:52:41;;;;;;;;;0.00;0.00;14.80;99.90;;;;;;5043869;28;11286;-53
2021/12/23 13:55:17;;;;;;;;;0.00;0.00;14.80;99.90;;;;;;5053351;28;10365;-55
2021/12/23 13:57:52;;;;;;;;;0.00;0.00;14.80;99.90;;;;;;5048123;28;10514;-54
2021/12/23 14:00:30;;;;;;;;;0.00;0.00;14.80;99.90;;;;;;5052518;28;10396;-55
2021/12/23 14:03:08;;;;;;;;;0.00;0.00;14.80;99.90;;;;;;5048281;28;10430;-55
2021/12/23 14:05:42;;;;;;;;;0.00;0.00;14.80;99.90;;;;;;5052224;28;10489;-55
2021/12/23 14:08:16;;;;;;;;;0.00;0.00;14.80;99.90;;;;;;5048605;28;10556;-54
2021/12/23 14:10:47;;;;;;;;;0.00;0.00;14.80;99.90;;;;;;5052463;28;10247;-52
2021/12/23 14:13:21;;;;;;;;;0.00;0.00;14.80;99.90;;;;;;5034670;28;10465;-55